Darstellungsparameter: Aktuell verwendete Einstellungen:
Skalierung der Graphiken ... ?
xyx+y,   Skalierungsfaktor:      Skalierung: Modus: x, Faktor: 1
Darstellungszeitraum ... ?
Vom - - bis: - -   Zeitraum: 10.07.2020 - 10.07.2020
Min/Max/Avg-Anzeige ... ?
Zeige MMA aktuell
Zeige MMA Monat
Zeige MMA alles
Zeige --A aktuell
Zeige --A Monat
Zeige --A alles
Keine MMA-Anzeige
MMA:
Keine MMA-Graphiken
MMA-Basis: 10.07.2020 - 10.07.2020
Quicknavigation für Darstellung... ?
Tage:      1T, 2T, 3T, 5T -1T -2T -3T -5T +1T +2T +3T +5T
Wochen: 1W, 2W, 3W -1W -2W -3W +1W +2W +3W
Monate: 1M, 3M, 6M -1M -3M -6M +1M +3M +6M
Jahre:    1J, 3J, 5J, 10J -1J -3J -5J -10J +1J +3J +5J +10J
Nutze für die Darstellung ... ?
Originaldaten oder Mittelwerte auf ...
Stundenbasis Tagesbasis Wochenbasis
Monatsbasis Jahresbasis      Datenbasis: Original-Daten
Darstellen als:
Statistik (Auto) Statistik J:M      Darstellung:
Zur Graphik,    zurück zur Übersicht aller Sensoren.
 
Tabellarische Datenbersicht: ?
 
Sensor: Nr:Datum:Temp:Abs-Feuchte:Windchill:Wind:
Aussen-T/F 1 10-07-2020 02:00:00 17.3 C 12.67 g/m*3 17.3 C 0 km/h
2 10-07-2020 02:05:00 17.2 C 12.74 g/m*3 17.2 C 0 km/h
3 10-07-2020 02:10:00 17.2 C 12.74 g/m*3 17.2 C 0 km/h
4 10-07-2020 02:15:00 17.1 C 12.81 g/m*3 17.1 C 0 km/h
5 10-07-2020 02:20:00 17.1 C 12.81 g/m*3 17.1 C 0 km/h
6 10-07-2020 02:25:00 17 C 12.73 g/m*3 17 C 0 km/h
7 10-07-2020 02:30:00 16.9 C 12.66 g/m*3 16.9 C 0 km/h
8 10-07-2020 02:35:00 16.9 C 12.66 g/m*3 16.9 C 0 km/h
9 10-07-2020 02:40:00 16.8 C 12.58 g/m*3 16.8 C 0 km/h
10 10-07-2020 02:45:00 16.7 C 12.51 g/m*3 16.7 C 0 km/h
11 10-07-2020 02:50:00 16.7 C 12.65 g/m*3 16.7 C 0 km/h
12 10-07-2020 02:55:00 16.7 C 12.65 g/m*3 16.7 C 0 km/h
13 10-07-2020 03:00:00 16.7 C 12.65 g/m*3 16.7 C 0 km/h
14 10-07-2020 03:05:00 16.7 C 12.65 g/m*3 16.7 C 0 km/h
15 10-07-2020 03:10:00 16.6 C 12.57 g/m*3 16.6 C 0 km/h
16 10-07-2020 03:15:00 16.6 C 12.57 g/m*3 16.6 C 0 km/h
17 10-07-2020 03:20:00 16.7 C 12.65 g/m*3 16.7 C 0 km/h
18 10-07-2020 03:25:00 16.7 C 12.65 g/m*3 16.7 C 0 km/h
19 10-07-2020 03:30:00 16.6 C 12.57 g/m*3 16.6 C 0 km/h
20 10-07-2020 03:35:00 16.6 C 12.57 g/m*3 16.6 C 0 km/h
21 10-07-2020 03:40:00 16.6 C 12.57 g/m*3 16.6 C 0 km/h
22 10-07-2020 03:45:00 16.6 C 12.57 g/m*3 16.6 C 0 km/h
23 10-07-2020 03:50:00 16.5 C 12.5 g/m*3 16.5 C 0 km/h
24 10-07-2020 03:55:00 16.5 C 12.5 g/m*3 16.5 C 0 km/h
25 10-07-2020 04:00:00 16.4 C 12.42 g/m*3 16.4 C 0 km/h
Sensor: Nr:Datum:Temp:Abs-Feuchte:Windchill:Wind:
Aussen-T/F 26 10-07-2020 04:05:00 16.4 C 12.42 g/m*3 16.4 C 0 km/h
27 10-07-2020 04:10:00 16.3 C 12.35 g/m*3 16.3 C 0 km/h
28 10-07-2020 04:15:00 16.3 C 12.49 g/m*3 16.3 C 0 km/h
29 10-07-2020 04:20:00 16.2 C 12.41 g/m*3 16.2 C 0 km/h
30 10-07-2020 04:25:00 16.1 C 12.34 g/m*3 16.1 C 0 km/h
31 10-07-2020 04:30:00 16.1 C 12.34 g/m*3 16.1 C 0 km/h
32 10-07-2020 04:35:00 16.1 C 12.34 g/m*3 16.1 C 0 km/h
33 10-07-2020 04:40:00 16.1 C 12.47 g/m*3 16.1 C 0 km/h
34 10-07-2020 04:45:00 16.1 C 12.47 g/m*3 16.1 C 0 km/h
35 10-07-2020 04:50:00 16.1 C 12.47 g/m*3 16.1 C 0 km/h
36 10-07-2020 04:55:00 16.2 C 12.55 g/m*3 16.2 C 0 km/h
37 10-07-2020 05:00:00 16.2 C 12.55 g/m*3 16.2 C 0 km/h
38 10-07-2020 05:05:00 16.2 C 12.55 g/m*3 16.2 C 0 km/h
39 10-07-2020 05:10:00 16.1 C 12.47 g/m*3 16.1 C 0 km/h
40 10-07-2020 05:15:00 16.1 C 12.47 g/m*3 16.1 C 0 km/h
41 10-07-2020 05:20:00 16.1 C 12.47 g/m*3 16.1 C 0 km/h
42 10-07-2020 05:25:00 16.1 C 12.47 g/m*3 16.1 C 0 km/h
43 10-07-2020 05:30:00 16.1 C 12.47 g/m*3 16.1 C 0 km/h
44 10-07-2020 05:35:00 16.1 C 12.47 g/m*3 16.1 C 8.1 km/h
45 10-07-2020 05:40:00 16.2 C 12.41 g/m*3 16.2 C 0 km/h
46 10-07-2020 05:45:00 16.2 C 12.41 g/m*3 16.2 C 0 km/h
47 10-07-2020 05:50:00 16.2 C 12.41 g/m*3 16.2 C 0 km/h
48 10-07-2020 05:55:00 16.2 C 12.41 g/m*3 16.2 C 6.4 km/h
49 10-07-2020 06:00:00 16.2 C 12.41 g/m*3 16.2 C 9.7 km/h
50 10-07-2020 06:05:00 16.2 C 12.41 g/m*3 16.2 C 0 km/h
Sensor: Nr:Datum:Temp:Abs-Feuchte:Windchill:Wind:
Aussen-T/F 51 10-07-2020 06:10:00 16.2 C 12.41 g/m*3 16.2 C 0 km/h
52 10-07-2020 06:15:00 16.2 C 12.41 g/m*3 16.2 C 0 km/h
53 10-07-2020 06:20:00 16.2 C 12.41 g/m*3 16.2 C 0 km/h
54 10-07-2020 06:25:00 16.3 C 12.62 g/m*3 16.3 C 0 km/h
55 10-07-2020 06:30:00 16.3 C 12.62 g/m*3 16.3 C 0 km/h
56 10-07-2020 06:35:00 16.4 C 12.7 g/m*3 16.4 C 0 km/h
57 10-07-2020 06:40:00 16.4 C 12.7 g/m*3 16.4 C 0 km/h
58 10-07-2020 06:45:00 16.5 C 12.64 g/m*3 16.5 C 0 km/h
59 10-07-2020 06:50:00 16.5 C 12.64 g/m*3 16.5 C 3.2 km/h
60 10-07-2020 06:55:00 16.6 C 12.57 g/m*3 16.6 C 0 km/h
61 10-07-2020 07:00:00 16.7 C 12.65 g/m*3 16.7 C 0 km/h
62 10-07-2020 07:05:00 16.7 C 12.65 g/m*3 16.7 C 0 km/h
63 10-07-2020 07:10:00 16.8 C 12.72 g/m*3 16.8 C 4.8 km/h
64 10-07-2020 07:15:00 17 C 12.73 g/m*3 17 C 3.2 km/h
65 10-07-2020 07:20:00 17.2 C 12.89 g/m*3 17.2 C 3.2 km/h
66 10-07-2020 07:25:00 17.3 C 12.96 g/m*3 17.3 C 0 km/h
67 10-07-2020 07:30:00 17.4 C 12.89 g/m*3 17.4 C 0 km/h
68 10-07-2020 07:35:00 17.6 C 13.05 g/m*3 17.6 C 6.4 km/h
69 10-07-2020 07:40:00 17.7 C 12.98 g/m*3 17.7 C 4.8 km/h
70 10-07-2020 07:45:00 17.9 C 13.13 g/m*3 17.9 C 0 km/h
71 10-07-2020 07:50:00 18.1 C 13.13 g/m*3 18.1 C 3.2 km/h
72 10-07-2020 07:55:00 18.2 C 13.21 g/m*3 18.2 C 3.2 km/h
73 10-07-2020 08:00:00 18.4 C 13.37 g/m*3 18.4 C 0 km/h
74 10-07-2020 08:05:00 18.5 C 13.29 g/m*3 18.5 C 0 km/h
75 10-07-2020 08:10:00 18.6 C 13.37 g/m*3 18.6 C 3.2 km/h
Sensor: Nr:Datum:Temp:Abs-Feuchte:Windchill:Wind:
Aussen-T/F 76 10-07-2020 08:15:00 18.7 C 13.45 g/m*3 18.7 C 0 km/h
77 10-07-2020 08:20:00 18.8 C 13.37 g/m*3 18.8 C 3.2 km/h
78 10-07-2020 08:25:00 19 C 13.69 g/m*3 19 C 4.8 km/h
79 10-07-2020 08:30:00 19.2 C 13.52 g/m*3 19.2 C 4.8 km/h
80 10-07-2020 08:35:00 19.4 C 13.68 g/m*3 19.4 C 8.1 km/h
81 10-07-2020 08:40:00 19.6 C 13.51 g/m*3 19.6 C 4.8 km/h
82 10-07-2020 08:45:00 19.8 C 13.32 g/m*3 19.8 C 8.1 km/h
83 10-07-2020 08:50:00 20.1 C 13.39 g/m*3 20.1 C 9.7 km/h
84 10-07-2020 08:55:00 20.2 C 13.46 g/m*3 20.2 C 19.3 km/h
85 10-07-2020 09:00:00 20.3 C 13.37 g/m*3 20.3 C 11.3 km/h
86 10-07-2020 09:05:00 20.3 C 13.37 g/m*3 20.3 C 9.7 km/h
87 10-07-2020 09:10:00 20.3 C 13.19 g/m*3 20.3 C 14.5 km/h
88 10-07-2020 09:15:00 20.3 C 13.19 g/m*3 20.3 C 14.5 km/h
89 10-07-2020 09:20:00 20.3 C 13.37 g/m*3 20.3 C 12.9 km/h
90 10-07-2020 09:25:00 20.3 C 13.37 g/m*3 20.3 C 9.7 km/h
91 10-07-2020 09:30:00 20.3 C 13.37 g/m*3 20.3 C 14.5 km/h
92 10-07-2020 09:35:00 20.2 C 13.46 g/m*3 20.2 C 9.7 km/h
93 10-07-2020 09:40:00 20.2 C 13.46 g/m*3 20.2 C 11.3 km/h
94 10-07-2020 09:45:00 20.2 C 13.29 g/m*3 20.2 C 9.7 km/h
95 10-07-2020 09:50:00 20.2 C 13.29 g/m*3 20.2 C 14.5 km/h
96 10-07-2020 09:55:00 20.3 C 13.19 g/m*3 20.3 C 14.5 km/h
97 10-07-2020 10:00:00 20.4 C 13.27 g/m*3 20.4 C 9.7 km/h
98 10-07-2020 10:05:00 20.4 C 13.27 g/m*3 20.4 C 16.1 km/h
99 10-07-2020 10:10:00 20.4 C 13.27 g/m*3 20.4 C 11.3 km/h
100 10-07-2020 10:15:00 20.4 C 12.91 g/m*3 20.4 C 17.7 km/h
Sensor: Nr:Datum:Temp:Abs-Feuchte:Windchill:Wind:
Aussen-T/F 101 10-07-2020 10:20:00 20.6 C 12.89 g/m*3 20.6 C 12.9 km/h
102 10-07-2020 10:25:00 20.7 C 12.78 g/m*3 20.7 C 16.1 km/h
103 10-07-2020 10:30:00 20.8 C 12.86 g/m*3 20.8 C 16.1 km/h
104 10-07-2020 10:35:00 20.8 C 12.49 g/m*3 20.8 C 19.3 km/h
105 10-07-2020 10:40:00 20.8 C 12.86 g/m*3 20.8 C 17.7 km/h
106 10-07-2020 10:45:00 20.9 C 12.93 g/m*3 20.9 C 16.1 km/h
107 10-07-2020 10:50:00 21 C 13.01 g/m*3 21 C 12.9 km/h
108 10-07-2020 10:55:00 21.1 C 13.08 g/m*3 21.1 C 12.9 km/h
109 10-07-2020 11:00:00 21.2 C 13.16 g/m*3 21.2 C 14.5 km/h
110 10-07-2020 11:05:00 21.2 C 12.79 g/m*3 21.2 C 14.5 km/h
111 10-07-2020 11:10:00 21.3 C 12.86 g/m*3 21.3 C 14.5 km/h
112 10-07-2020 11:15:00 21.3 C 12.68 g/m*3 21.3 C 17.7 km/h
113 10-07-2020 11:20:00 21.2 C 12.79 g/m*3 21.2 C 17.7 km/h
114 10-07-2020 11:25:00 21.3 C 12.86 g/m*3 21.3 C 14.5 km/h
115 10-07-2020 11:30:00 21.3 C 12.68 g/m*3 21.3 C 17.7 km/h
116 10-07-2020 11:35:00 21.4 C 12.94 g/m*3 21.4 C 11.3 km/h
117 10-07-2020 11:40:00 21.6 C 12.52 g/m*3 21.6 C 17.7 km/h
118 10-07-2020 11:45:00 21.6 C 12.52 g/m*3 21.6 C 22.5 km/h
119 10-07-2020 11:50:00 21.8 C 12.66 g/m*3 21.8 C 22.5 km/h
120 10-07-2020 11:55:00 21.9 C 12.35 g/m*3 21.9 C 20.9 km/h
121 10-07-2020 12:00:00 21.9 C 12.35 g/m*3 21.9 C 17.7 km/h
122 10-07-2020 12:05:00 22.1 C 12.69 g/m*3 22.1 C 17.7 km/h
123 10-07-2020 12:10:00 22.2 C 12.96 g/m*3 22.2 C 16.1 km/h
124 10-07-2020 12:15:00 22.1 C 12.88 g/m*3 22.1 C 17.7 km/h
125 10-07-2020 12:20:00 21.9 C 12.74 g/m*3 21.9 C 14.5 km/h
Sensor: Nr:Datum:Temp:Abs-Feuchte:Windchill:Wind:
Aussen-T/F 126 10-07-2020 12:25:00 21.9 C 12.54 g/m*3 21.9 C 11.3 km/h
127 10-07-2020 12:30:00 21.9 C 12.54 g/m*3 21.9 C 14.5 km/h
128 10-07-2020 12:35:00 21.9 C 12.54 g/m*3 21.9 C 19.3 km/h
129 10-07-2020 12:40:00 21.9 C 12.35 g/m*3 21.9 C 16.1 km/h
130 10-07-2020 12:45:00 22 C 12.42 g/m*3 22 C 16.1 km/h
131 10-07-2020 12:50:00 22.1 C 12.49 g/m*3 22.1 C 12.9 km/h
132 10-07-2020 12:55:00 21.9 C 12.35 g/m*3 21.9 C 19.3 km/h
133 10-07-2020 13:00:00 21.8 C 12.47 g/m*3 21.8 C 17.7 km/h
134 10-07-2020 13:05:00 21.8 C 12.28 g/m*3 21.8 C 16.1 km/h
135 10-07-2020 13:10:00 21.9 C 12.35 g/m*3 21.9 C 11.3 km/h
136 10-07-2020 13:15:00 21.9 C 12.35 g/m*3 21.9 C 19.3 km/h
137 10-07-2020 13:20:00 21.6 C 12.33 g/m*3 21.6 C 22.5 km/h
138 10-07-2020 13:25:00 21.2 C 11.86 g/m*3 21.2 C 16.1 km/h
139 10-07-2020 13:30:00 20.9 C 12.2 g/m*3 20.9 C 12.9 km/h
140 10-07-2020 13:35:00 20.8 C 11.95 g/m*3 20.8 C 17.7 km/h
141 10-07-2020 13:40:00 20.8 C 11.95 g/m*3 20.8 C 16.1 km/h
142 10-07-2020 13:45:00 20.8 C 11.95 g/m*3 20.8 C 14.5 km/h
143 10-07-2020 13:50:00 20.8 C 12.13 g/m*3 20.8 C 16.1 km/h
144 10-07-2020 13:55:00 20.8 C 11.95 g/m*3 20.8 C 17.7 km/h
145 10-07-2020 14:00:00 20.8 C 12.13 g/m*3 20.8 C 11.3 km/h
146 10-07-2020 14:05:00 20.9 C 12.57 g/m*3 20.9 C 6.4 km/h
147 10-07-2020 14:10:00 21.2 C 12.23 g/m*3 21.2 C 20.9 km/h
148 10-07-2020 14:15:00 21.2 C 12.23 g/m*3 21.2 C 19.3 km/h
149 10-07-2020 14:20:00 21.2 C 12.23 g/m*3 21.2 C 14.5 km/h
150 10-07-2020 14:25:00 21.1 C 11.98 g/m*3 21.1 C 14.5 km/h
Sensor: Nr:Datum:Temp:Abs-Feuchte:Windchill:Wind:
Aussen-T/F 151 10-07-2020 14:30:00 20.9 C 12.02 g/m*3 20.9 C 25.7 km/h
152 10-07-2020 14:35:00 20.9 C 12.02 g/m*3 20.9 C 9.7 km/h
153 10-07-2020 14:40:00 20.9 C 12.02 g/m*3 20.9 C 12.9 km/h
154 10-07-2020 14:45:00 20.8 C 11.77 g/m*3 20.8 C 16.1 km/h
155 10-07-2020 14:50:00 20.8 C 11.95 g/m*3 20.8 C 17.7 km/h
156 10-07-2020 14:55:00 20.8 C 11.95 g/m*3 20.8 C 12.9 km/h
157 10-07-2020 15:00:00 20.8 C 11.95 g/m*3 20.8 C 16.1 km/h
158 10-07-2020 15:05:00 20.7 C 12.06 g/m*3 20.7 C 14.5 km/h
159 10-07-2020 15:10:00 20.7 C 12.42 g/m*3 20.7 C 11.3 km/h
160 10-07-2020 15:15:00 20.2 C 12.76 g/m*3 20.2 C 14.5 km/h
161 10-07-2020 15:20:00 19.5 C 13.09 g/m*3 19.5 C 11.3 km/h
162 10-07-2020 15:25:00 19 C 13.2 g/m*3 19 C 6.4 km/h
163 10-07-2020 15:30:00 18.7 C 13.29 g/m*3 18.7 C 9.7 km/h
164 10-07-2020 15:35:00 18.4 C 13.53 g/m*3 18.4 C 8.1 km/h
165 10-07-2020 15:40:00 18.4 C 13.68 g/m*3 18.4 C 8.1 km/h
166 10-07-2020 15:45:00 18.4 C 14 g/m*3 18.4 C 6.4 km/h
167 10-07-2020 15:50:00 18.4 C 13.68 g/m*3 18.4 C 9.7 km/h
168 10-07-2020 15:55:00 18.4 C 13.84 g/m*3 18.4 C 4.8 km/h
169 10-07-2020 16:00:00 18.4 C 13.84 g/m*3 18.4 C 0 km/h
170 10-07-2020 16:05:00 18.4 C 13.84 g/m*3 18.4 C 0 km/h
171 10-07-2020 16:10:00 18.5 C 14.08 g/m*3 18.5 C 4.8 km/h
172 10-07-2020 16:15:00 18.6 C 14.32 g/m*3 18.6 C 4.8 km/h
173 10-07-2020 16:20:00 18.7 C 14.41 g/m*3 18.7 C 8.1 km/h
174 10-07-2020 16:25:00 18.6 C 14.32 g/m*3 18.6 C 4.8 km/h
175 10-07-2020 16:30:00 18.5 C 14.08 g/m*3 18.5 C 8.1 km/h
Sensor: Nr:Datum:Temp:Abs-Feuchte:Windchill:Wind:
Aussen-T/F 176 10-07-2020 16:35:00 18.3 C 13.92 g/m*3 18.3 C 6.4 km/h
177 10-07-2020 16:40:00 18.2 C 13.83 g/m*3 18.2 C 8.1 km/h
178 10-07-2020 16:45:00 18.1 C 13.75 g/m*3 18.1 C 6.4 km/h
179 10-07-2020 16:50:00 17.9 C 13.59 g/m*3 17.9 C 8.1 km/h
180 10-07-2020 16:55:00 17.8 C 13.66 g/m*3 17.8 C 9.7 km/h
181 10-07-2020 17:00:00 17.7 C 13.58 g/m*3 17.7 C 8.1 km/h
182 10-07-2020 17:05:00 17.6 C 13.65 g/m*3 17.6 C 6.4 km/h
183 10-07-2020 17:10:00 17.6 C 13.65 g/m*3 17.6 C 6.4 km/h
184 10-07-2020 17:15:00 17.7 C 13.88 g/m*3 17.7 C 11.3 km/h
185 10-07-2020 17:20:00 17.8 C 13.96 g/m*3 17.8 C 9.7 km/h
186 10-07-2020 17:25:00 17.9 C 14.05 g/m*3 17.9 C 6.4 km/h
187 10-07-2020 17:30:00 18.2 C 14.46 g/m*3 18.2 C 4.8 km/h
188 10-07-2020 17:35:00 18.4 C 14.63 g/m*3 18.4 C 4.8 km/h
189 10-07-2020 17:40:00 18.8 C 15.14 g/m*3 18.8 C 3.2 km/h
190 10-07-2020 17:45:00 18.9 C 15.07 g/m*3 18.9 C 1.6 km/h
191 10-07-2020 17:50:00 19.2 C 15.17 g/m*3 19.2 C 3.2 km/h
192 10-07-2020 17:55:00 19.3 C 14.6 g/m*3 19.3 C 4.8 km/h
193 10-07-2020 18:00:00 19.7 C 13.58 g/m*3 19.7 C 6.4 km/h
194 10-07-2020 18:05:00 20.1 C 13.04 g/m*3 20.1 C 11.3 km/h
195 10-07-2020 18:10:00 20 C 12.27 g/m*3 20 C 19.3 km/h
196 10-07-2020 18:15:00 19.3 C 11.78 g/m*3 19.3 C 20.9 km/h
197 10-07-2020 18:20:00 18.8 C 11.76 g/m*3 18.8 C 19.3 km/h
198 10-07-2020 18:25:00 18.6 C 11.46 g/m*3 18.6 C 16.1 km/h
199 10-07-2020 18:30:00 18.5 C 11.55 g/m*3 18.5 C 16.1 km/h
200 10-07-2020 18:35:00 18.6 C 11.78 g/m*3 18.6 C 12.9 km/h
Sensor: Nr:Datum:Temp:Abs-Feuchte:Windchill:Wind:
Aussen-T/F 201 10-07-2020 18:40:00 18.8 C 11.92 g/m*3 18.8 C 11.3 km/h
202 10-07-2020 18:45:00 19.3 C 12.11 g/m*3 19.3 C 9.7 km/h
203 10-07-2020 18:50:00 19.8 C 12.13 g/m*3 19.8 C 12.9 km/h
204 10-07-2020 18:55:00 20.1 C 12.17 g/m*3 20.1 C 17.7 km/h
205 10-07-2020 19:00:00 20.4 C 12.03 g/m*3 20.4 C 16.1 km/h
206 10-07-2020 19:05:00 20.3 C 11.78 g/m*3 20.3 C 14.5 km/h
207 10-07-2020 19:10:00 19.9 C 11.68 g/m*3 19.9 C 14.5 km/h
208 10-07-2020 19:15:00 20.1 C 11.82 g/m*3 20.1 C 11.3 km/h
209 10-07-2020 19:20:00 20.1 C 11.47 g/m*3 20.1 C 16.1 km/h
210 10-07-2020 19:25:00 20.1 C 11.65 g/m*3 20.1 C 12.9 km/h
211 10-07-2020 19:30:00 19.8 C 11.44 g/m*3 19.8 C 16.1 km/h
212 10-07-2020 19:35:00 19.4 C 11.51 g/m*3 19.4 C 14.5 km/h
213 10-07-2020 19:40:00 19.2 C 11.71 g/m*3 19.2 C 12.9 km/h
214 10-07-2020 19:45:00 19 C 11.57 g/m*3 19 C 12.9 km/h
215 10-07-2020 19:50:00 18.8 C 11.43 g/m*3 18.8 C 16.1 km/h
216 10-07-2020 19:55:00 18.8 C 11.6 g/m*3 18.8 C 8.1 km/h
217 10-07-2020 20:00:00 18.8 C 11.6 g/m*3 18.8 C 11.3 km/h
218 10-07-2020 20:05:00 19 C 11.41 g/m*3 19 C 14.5 km/h
219 10-07-2020 20:10:00 19.1 C 11.47 g/m*3 19.1 C 6.4 km/h
220 10-07-2020 20:15:00 19 C 11.57 g/m*3 19 C 11.3 km/h
221 10-07-2020 20:20:00 18.8 C 11.6 g/m*3 18.8 C 16.1 km/h
222 10-07-2020 20:25:00 18.6 C 11.3 g/m*3 18.6 C 14.5 km/h
223 10-07-2020 20:30:00 18.4 C 11.32 g/m*3 18.4 C 11.3 km/h
224 10-07-2020 20:35:00 18.3 C 11.41 g/m*3 18.3 C 11.3 km/h
225 10-07-2020 20:40:00 18.3 C 11.1 g/m*3 18.3 C 16.1 km/h
Sensor: Nr:Datum:Temp:Abs-Feuchte:Windchill:Wind:
Aussen-T/F 226 10-07-2020 20:45:00 18.3 C 11.1 g/m*3 18.3 C 8.1 km/h
227 10-07-2020 20:50:00 18.2 C 10.88 g/m*3 18.2 C 12.9 km/h
228 10-07-2020 20:55:00 18.2 C 10.88 g/m*3 18.2 C 8.1 km/h
229 10-07-2020 21:00:00 18.1 C 10.82 g/m*3 18.1 C 6.4 km/h
230 10-07-2020 21:05:00 17.9 C 10.84 g/m*3 17.9 C 8.1 km/h
231 10-07-2020 21:10:00 17.9 C 10.84 g/m*3 17.9 C 4.8 km/h
232 10-07-2020 21:15:00 17.8 C 10.62 g/m*3 17.8 C 3.2 km/h
233 10-07-2020 21:20:00 17.8 C 10.78 g/m*3 17.8 C 6.4 km/h
234 10-07-2020 21:25:00 17.8 C 10.78 g/m*3 17.8 C 4.8 km/h
235 10-07-2020 21:30:00 17.7 C 10.71 g/m*3 17.7 C 4.8 km/h
236 10-07-2020 21:35:00 17.7 C 10.86 g/m*3 17.7 C 3.2 km/h
237 10-07-2020 21:40:00 17.6 C 10.65 g/m*3 17.6 C 4.8 km/h
238 10-07-2020 21:45:00 17.6 C 10.65 g/m*3 17.6 C 4.8 km/h
239 10-07-2020 21:50:00 17.6 C 10.8 g/m*3 17.6 C 4.8 km/h
240 10-07-2020 21:55:00 17.5 C 10.73 g/m*3 17.5 C 1.6 km/h
241 10-07-2020 22:00:00 17.4 C 10.82 g/m*3 17.4 C 6.4 km/h
242 10-07-2020 22:05:00 17.4 C 10.82 g/m*3 17.4 C 6.4 km/h
243 10-07-2020 22:10:00 17.3 C 10.61 g/m*3 17.3 C 6.4 km/h
244 10-07-2020 22:15:00 17.3 C 10.61 g/m*3 17.3 C 8.1 km/h
245 10-07-2020 22:20:00 17.2 C 10.54 g/m*3 17.2 C 6.4 km/h
246 10-07-2020 22:25:00 17.2 C 10.54 g/m*3 17.2 C 4.8 km/h
247 10-07-2020 22:30:00 17.2 C 10.54 g/m*3 17.2 C 6.4 km/h
248 10-07-2020 22:35:00 17.1 C 10.48 g/m*3 17.1 C 4.8 km/h
249 10-07-2020 22:40:00 17.1 C 10.48 g/m*3 17.1 C 1.6 km/h
250 10-07-2020 22:45:00 17.1 C 10.48 g/m*3 17.1 C 1.6 km/h
Sensor: Nr:Datum:Temp:Abs-Feuchte:Windchill:Wind:
Aussen-T/F 251 10-07-2020 22:50:00 17 C 10.71 g/m*3 17 C 0 km/h
252 10-07-2020 22:55:00 16.9 C 10.5 g/m*3 16.9 C 1.6 km/h
253 10-07-2020 23:00:00 16.9 C 10.64 g/m*3 16.9 C 1.6 km/h
254 10-07-2020 23:05:00 16.8 C 10.58 g/m*3 16.8 C 0 km/h
255 10-07-2020 23:10:00 16.8 C 10.44 g/m*3 16.8 C 0 km/h
256 10-07-2020 23:15:00 16.7 C 10.37 g/m*3 16.7 C 4.8 km/h
257 10-07-2020 23:20:00 16.7 C 10.52 g/m*3 16.7 C 0 km/h
258 10-07-2020 23:25:00 16.7 C 10.37 g/m*3 16.7 C 4.8 km/h
259 10-07-2020 23:30:00 16.6 C 10.31 g/m*3 16.6 C 4.8 km/h
260 10-07-2020 23:35:00 16.6 C 10.31 g/m*3 16.6 C 1.6 km/h
261 10-07-2020 23:40:00 16.6 C 10.45 g/m*3 16.6 C 1.6 km/h
262 10-07-2020 23:45:00 16.5 C 10.39 g/m*3 16.5 C 1.6 km/h
263 10-07-2020 23:50:00 16.4 C 10.47 g/m*3 16.4 C 0 km/h
264 10-07-2020 23:55:00 16.3 C 10.41 g/m*3 16.3 C 1.6 km/h

Legende:
   Min
   Max


Maximal/Minimal-Werte vom 10.07.2020 - 10.07.2020

Sensor Min Max Avg
Temp
(Aussen-T/F)
16.1 °C
10-07-2020  04:25:00
22.2 °C
10-07-2020  12:10:00
18.66 °C
Abs-Feuchte
(Aussen-T/F)
10.31 g/m*3
10-07-2020  23:30:00
15.17 g/m*3
10-07-2020  17:50:00
12.37 g/m*3
Windchill
(Aussen-T/F)
16.1 C
10-07-2020  04:25:00
22.2 C
10-07-2020  12:10:00
18.59 C

Die Daten stammen von einer Davis Vantage Pro 2 Wetter-Station und werden unter Linux mit der Software wview2wettercgi und aufbereitet. Alle Angaben erfolgen ohne Gewähr für ihre Vollständigkeit oder Richtigkeit.
Kontakt: Rainer Krienke krienke@uni-koblenz.de . Meine Webseiten an der Uni Koblenz oder privat.
Version: $Revision: 0.78 $